Terminal Aerodrome Forecast
Issued by NWS

Home | Current Version | Previous Version | Text Only | Print | Product List | Glossary On
Versions: 1 2 3 4 5 6 7 8 9 10 11 12 13 14 15 16 17 18 19
000
FTUS42 TJSJ 191725
TAFISX
TAF
TISX 191725Z 1918/2018 11013KT P6SM FEW020
     FM192200 09007KT P6SM FEW020
     FM201200 11012KT P6SM FEW020
      AMD NOT SKED=

USA.gov is the U.S. government's official web portal to all federal, state and local government web resources and services.